sensor_id;sensor_type;location;lat;lon;timestamp;P1;durP1;ratioP1;P2;durP2;ratioP2
76626;SDS011;65519;53.230;10.390;2022-12-19T00:02:03;23.70;;;10.50;;
76626;SDS011;65519;53.230;10.390;2022-12-19T00:04:29;20.17;;;10.63;;
76626;SDS011;65519;53.230;10.390;2022-12-19T00:06:57;21.80;;;11.40;;
76626;SDS011;65519;53.230;10.390;2022-12-19T00:09:23;22.63;;;9.85;;
76626;SDS011;65519;53.230;10.390;2022-12-19T00:11:49;23.45;;;10.63;;
76626;SDS011;65519;53.230;10.390;2022-12-19T00:14:15;24.13;;;10.47;;
76626;SDS011;65519;53.230;10.390;2022-12-19T00:16:41;17.88;;;9.68;;
76626;SDS011;65519;53.230;10.390;2022-12-19T00:19:08;24.42;;;11.63;;
76626;SDS011;65519;53.230;10.390;2022-12-19T00:21:35;21.75;;;10.13;;
76626;SDS011;65519;53.230;10.390;2022-12-19T00:24:04;24.50;;;11.30;;
76626;SDS011;65519;53.230;10.390;2022-12-19T00:26:32;21.73;;;11.23;;
76626;SDS011;65519;53.230;10.390;2022-12-19T00:29:00;19.42;;;10.68;;
76626;SDS011;65519;53.230;10.390;2022-12-19T00:31:28;17.25;;;8.68;;
76626;SDS011;65519;53.230;10.390;2022-12-19T00:33:55;20.13;;;9.32;;
76626;SDS011;65519;53.230;10.390;2022-12-19T00:36:21;19.60;;;10.45;;
76626;SDS011;65519;53.230;10.390;2022-12-19T00:38:48;19.98;;;9.98;;
76626;SDS011;65519;53.230;10.390;2022-12-19T00:41:24;22.13;;;8.90;;
76626;SDS011;65519;53.230;10.390;2022-12-19T00:43:54;19.27;;;9.02;;
76626;SDS011;65519;53.230;10.390;2022-12-19T00:46:30;25.35;;;11.57;;
76626;SDS011;65519;53.230;10.390;2022-12-19T00:48:57;24.20;;;9.70;;
76626;SDS011;65519;53.230;10.390;2022-12-19T00:51:30;26.70;;;11.88;;
76626;SDS011;65519;53.230;10.390;2022-12-19T00:53:57;21.55;;;10.23;;
76626;SDS011;65519;53.230;10.390;2022-12-19T00:56:24;26.67;;;9.82;;
76626;SDS011;65519;53.230;10.390;2022-12-19T00:58:55;22.27;;;9.90;;
76626;SDS011;65519;53.230;10.390;2022-12-19T01:01:22;24.90;;;12.20;;
76626;SDS011;65519;53.230;10.390;2022-12-19T01:03:48;19.70;;;10.10;;
76626;SDS011;65519;53.230;10.390;2022-12-19T01:06:14;20.70;;;10.55;;
76626;SDS011;65519;53.230;10.390;2022-12-19T01:08:40;19.95;;;9.85;;
76626;SDS011;65519;53.230;10.390;2022-12-19T01:11:06;21.30;;;9.80;;
76626;SDS011;65519;53.230;10.390;2022-12-19T01:13:32;22.08;;;11.20;;
76626;SDS011;65519;53.230;10.390;2022-12-19T01:16:03;19.90;;;10.57;;
76626;SDS011;65519;53.230;10.390;2022-12-19T01:18:31;19.70;;;9.98;;
76626;SDS011;65519;53.230;10.390;2022-12-19T01:20:58;19.95;;;10.57;;
76626;SDS011;65519;53.230;10.390;2022-12-19T01:23:25;22.50;;;10.50;;
76626;SDS011;65519;53.230;10.390;2022-12-19T01:25:51;23.98;;;10.70;;
76626;SDS011;65519;53.230;10.390;2022-12-19T01:28:17;22.48;;;10.93;;
76626;SDS011;65519;53.230;10.390;2022-12-19T01:30:43;18.23;;;8.75;;
76626;SDS011;65519;53.230;10.390;2022-12-19T01:33:09;20.33;;;9.70;;
76626;SDS011;65519;53.230;10.390;2022-12-19T01:35:36;20.52;;;9.23;;
76626;SDS011;65519;53.230;10.390;2022-12-19T01:38:02;24.95;;;9.88;;
76626;SDS011;65519;53.230;10.390;2022-12-19T01:40:27;18.50;;;9.05;;
76626;SDS011;65519;53.230;10.390;2022-12-19T01:42:53;23.48;;;10.10;;
76626;SDS011;65519;53.230;10.390;2022-12-19T01:45:22;20.15;;;9.93;;
76626;SDS011;65519;53.230;10.390;2022-12-19T01:47:50;22.52;;;10.50;;
76626;SDS011;65519;53.230;10.390;2022-12-19T01:50:19;19.20;;;9.68;;
76626;SDS011;65519;53.230;10.390;2022-12-19T01:52:51;17.52;;;9.30;;
76626;SDS011;65519;53.230;10.390;2022-12-19T01:55:17;18.33;;;9.15;;
76626;SDS011;65519;53.230;10.390;2022-12-19T01:57:44;16.55;;;8.98;;
76626;SDS011;65519;53.230;10.390;2022-12-19T02:00:10;20.15;;;11.15;;
76626;SDS011;65519;53.230;10.390;2022-12-19T02:02:37;17.40;;;8.70;;
76626;SDS011;65519;53.230;10.390;2022-12-19T02:05:07;25.02;;;10.15;;
76626;SDS011;65519;53.230;10.390;2022-12-19T02:07:33;22.60;;;9.75;;
76626;SDS011;65519;53.230;10.390;2022-12-19T02:10:00;18.45;;;9.13;;
76626;SDS011;65519;53.230;10.390;2022-12-19T02:12:27;24.77;;;10.23;;
76626;SDS011;65519;53.230;10.390;2022-12-19T02:14:56;22.80;;;10.43;;
76626;SDS011;65519;53.230;10.390;2022-12-19T02:28:11;18.08;;;9.13;;
76626;SDS011;65519;53.230;10.390;2022-12-19T02:31:00;21.42;;;10.02;;
76626;SDS011;65519;53.230;10.390;2022-12-19T02:36:11;17.05;;;9.27;;
76626;SDS011;65519;53.230;10.390;2022-12-19T02:38:49;21.25;;;10.85;;
76626;SDS011;65519;53.230;10.390;2022-12-19T02:41:26;19.38;;;8.80;;
76626;SDS011;65519;53.230;10.390;2022-12-19T02:44:07;25.67;;;9.98;;
76626;SDS011;65519;53.230;10.390;2022-12-19T02:46:38;19.27;;;9.23;;
76626;SDS011;65519;53.230;10.390;2022-12-19T02:49:05;20.30;;;10.20;;
76626;SDS011;65519;53.230;10.390;2022-12-19T02:51:31;19.10;;;9.68;;
76626;SDS011;65519;53.230;10.390;2022-12-19T02:53:56;21.95;;;11.23;;
76626;SDS011;65519;53.230;10.390;2022-12-19T03:04:06;19.10;;;8.35;;
76626;SDS011;65519;53.230;10.390;2022-12-19T03:09:08;17.05;;;7.97;;
76626;SDS011;65519;53.230;10.390;2022-12-19T03:11:50;16.92;;;8.95;;
76626;SDS011;65519;53.230;10.390;2022-12-19T03:14:23;17.70;;;9.20;;
76626;SDS011;65519;53.230;10.390;2022-12-19T03:16:50;23.70;;;11.50;;
76626;SDS011;65519;53.230;10.390;2022-12-19T03:19:16;19.52;;;9.50;;
76626;SDS011;65519;53.230;10.390;2022-12-19T03:21:45;18.02;;;9.40;;
76626;SDS011;65519;53.230;10.390;2022-12-19T03:24:13;17.02;;;9.55;;
76626;SDS011;65519;53.230;10.390;2022-12-19T03:26:41;21.00;;;8.77;;
76626;SDS011;65519;53.230;10.390;2022-12-19T03:29:16;22.05;;;11.13;;
76626;SDS011;65519;53.230;10.390;2022-12-19T03:31:42;16.10;;;8.88;;
76626;SDS011;65519;53.230;10.390;2022-12-19T03:34:14;18.40;;;9.18;;
76626;SDS011;65519;53.230;10.390;2022-12-19T03:36:46;15.88;;;9.23;;
76626;SDS011;65519;53.230;10.390;2022-12-19T03:39:15;12.75;;;7.38;;
76626;SDS011;65519;53.230;10.390;2022-12-19T03:41:46;17.95;;;8.63;;
76626;SDS011;65519;53.230;10.390;2022-12-19T03:44:32;20.30;;;10.15;;
76626;SDS011;65519;53.230;10.390;2022-12-19T03:50:13;16.50;;;8.65;;
76626;SDS011;65519;53.230;10.390;2022-12-19T03:55:31;21.73;;;9.85;;
76626;SDS011;65519;53.230;10.390;2022-12-19T03:58:06;19.08;;;8.55;;
76626;SDS011;65519;53.230;10.390;2022-12-19T04:00:39;18.65;;;9.95;;
76626;SDS011;65519;53.230;10.390;2022-12-19T04:03:07;17.13;;;9.45;;
76626;SDS011;65519;53.230;10.390;2022-12-19T04:05:34;25.60;;;9.60;;
76626;SDS011;65519;53.230;10.390;2022-12-19T04:08:03;19.50;;;9.30;;
76626;SDS011;65519;53.230;10.390;2022-12-19T04:12:59;16.60;;;9.45;;
76626;SDS011;65519;53.230;10.390;2022-12-19T04:15:35;20.27;;;9.25;;
76626;SDS011;65519;53.230;10.390;2022-12-19T04:18:04;22.02;;;10.18;;
76626;SDS011;65519;53.230;10.390;2022-12-19T04:20:34;16.58;;;9.15;;
76626;SDS011;65519;53.230;10.390;2022-12-19T04:25:28;16.50;;;7.43;;
76626;SDS011;65519;53.230;10.390;2022-12-19T04:27:59;20.15;;;9.13;;
76626;SDS011;65519;53.230;10.390;2022-12-19T04:30:28;20.05;;;9.82;;
76626;SDS011;65519;53.230;10.390;2022-12-19T04:32:53;17.30;;;8.75;;
76626;SDS011;65519;53.230;10.390;2022-12-19T04:35:19;12.90;;;6.90;;
76626;SDS011;65519;53.230;10.390;2022-12-19T04:37:44;17.48;;;8.90;;
76626;SDS011;65519;53.230;10.390;2022-12-19T04:40:10;14.82;;;8.35;;
76626;SDS011;65519;53.230;10.390;2022-12-19T04:42:36;18.92;;;9.70;;
76626;SDS011;65519;53.230;10.390;2022-12-19T04:45:02;19.13;;;10.43;;
76626;SDS011;65519;53.230;10.390;2022-12-19T04:47:28;14.27;;;8.65;;
76626;SDS011;65519;53.230;10.390;2022-12-19T04:49:54;16.35;;;8.40;;
76626;SDS011;65519;53.230;10.390;2022-12-19T04:52:19;12.83;;;7.47;;
76626;SDS011;65519;53.230;10.390;2022-12-19T04:54:44;14.90;;;9.63;;
76626;SDS011;65519;53.230;10.390;2022-12-19T04:57:10;17.43;;;10.03;;
76626;SDS011;65519;53.230;10.390;2022-12-19T04:59:35;12.02;;;7.93;;
76626;SDS011;65519;53.230;10.390;2022-12-19T05:02:00;23.07;;;10.57;;
76626;SDS011;65519;53.230;10.390;2022-12-19T05:04:26;18.67;;;9.57;;
76626;SDS011;65519;53.230;10.390;2022-12-19T05:06:51;16.10;;;9.30;;
76626;SDS011;65519;53.230;10.390;2022-12-19T05:09:17;16.73;;;9.15;;
76626;SDS011;65519;53.230;10.390;2022-12-19T05:11:42;12.27;;;6.87;;
76626;SDS011;65519;53.230;10.390;2022-12-19T05:14:07;15.65;;;7.75;;
76626;SDS011;65519;53.230;10.390;2022-12-19T05:16:33;18.40;;;9.77;;
76626;SDS011;65519;53.230;10.390;2022-12-19T05:18:59;20.25;;;8.50;;
76626;SDS011;65519;53.230;10.390;2022-12-19T05:21:25;17.35;;;9.43;;
76626;SDS011;65519;53.230;10.390;2022-12-19T05:23:50;17.85;;;8.68;;
76626;SDS011;65519;53.230;10.390;2022-12-19T05:26:16;16.75;;;9.25;;
76626;SDS011;65519;53.230;10.390;2022-12-19T05:28:42;18.48;;;8.70;;
76626;SDS011;65519;53.230;10.390;2022-12-19T05:31:14;21.95;;;9.93;;
76626;SDS011;65519;53.230;10.390;2022-12-19T05:33:42;14.40;;;8.15;;
76626;SDS011;65519;53.230;10.390;2022-12-19T05:36:08;12.75;;;7.32;;
76626;SDS011;65519;53.230;10.390;2022-12-19T05:38:34;19.83;;;9.50;;
76626;SDS011;65519;53.230;10.390;2022-12-19T05:41:05;15.70;;;9.05;;
76626;SDS011;65519;53.230;10.390;2022-12-19T05:43:34;16.08;;;8.60;;
76626;SDS011;65519;53.230;10.390;2022-12-19T05:45:59;18.58;;;8.57;;
76626;SDS011;65519;53.230;10.390;2022-12-19T05:48:25;19.60;;;11.30;;
76626;SDS011;65519;53.230;10.390;2022-12-19T05:50:50;14.63;;;8.53;;
76626;SDS011;65519;53.230;10.390;2022-12-19T05:53:16;16.75;;;8.13;;
76626;SDS011;65519;53.230;10.390;2022-12-19T05:55:42;16.48;;;7.95;;
76626;SDS011;65519;53.230;10.390;2022-12-19T05:58:07;18.58;;;9.63;;
76626;SDS011;65519;53.230;10.390;2022-12-19T06:00:33;17.35;;;9.10;;
76626;SDS011;65519;53.230;10.390;2022-12-19T06:02:58;13.55;;;7.97;;
76626;SDS011;65519;53.230;10.390;2022-12-19T06:05:23;21.37;;;8.13;;
76626;SDS011;65519;53.230;10.390;2022-12-19T06:07:49;17.27;;;11.00;;
76626;SDS011;65519;53.230;10.390;2022-12-19T06:10:14;19.23;;;10.03;;
76626;SDS011;65519;53.230;10.390;2022-12-19T06:12:39;15.25;;;8.43;;
76626;SDS011;65519;53.230;10.390;2022-12-19T06:15:05;15.75;;;9.15;;
76626;SDS011;65519;53.230;10.390;2022-12-19T06:17:31;16.25;;;8.60;;
76626;SDS011;65519;53.230;10.390;2022-12-19T06:19:56;15.73;;;7.70;;
76626;SDS011;65519;53.230;10.390;2022-12-19T06:22:21;16.73;;;9.30;;
76626;SDS011;65519;53.230;10.390;2022-12-19T06:24:48;13.85;;;8.48;;
76626;SDS011;65519;53.230;10.390;2022-12-19T06:27:13;14.80;;;8.73;;
76626;SDS011;65519;53.230;10.390;2022-12-19T06:29:39;21.02;;;10.02;;
76626;SDS011;65519;53.230;10.390;2022-12-19T06:32:04;16.38;;;8.80;;
76626;SDS011;65519;53.230;10.390;2022-12-19T06:34:30;15.02;;;8.90;;
76626;SDS011;65519;53.230;10.390;2022-12-19T06:36:55;16.70;;;9.07;;
76626;SDS011;65519;53.230;10.390;2022-12-19T06:39:20;9.82;;;6.18;;
76626;SDS011;65519;53.230;10.390;2022-12-19T06:41:46;18.42;;;10.00;;
76626;SDS011;65519;53.230;10.390;2022-12-19T06:44:30;17.73;;;9.75;;
76626;SDS011;65519;53.230;10.390;2022-12-19T06:46:56;14.85;;;7.78;;
76626;SDS011;65519;53.230;10.390;2022-12-19T06:49:21;18.63;;;8.53;;
76626;SDS011;65519;53.230;10.390;2022-12-19T06:51:46;14.55;;;7.85;;
76626;SDS011;65519;53.230;10.390;2022-12-19T06:54:12;15.70;;;8.93;;
76626;SDS011;65519;53.230;10.390;2022-12-19T06:56:39;17.38;;;8.43;;
76626;SDS011;65519;53.230;10.390;2022-12-19T06:59:06;15.55;;;7.57;;
76626;SDS011;65519;53.230;10.390;2022-12-19T07:04:00;15.60;;;8.73;;
76626;SDS011;65519;53.230;10.390;2022-12-19T07:06:26;19.15;;;10.63;;
76626;SDS011;65519;53.230;10.390;2022-12-19T07:08:52;15.85;;;8.65;;
76626;SDS011;65519;53.230;10.390;2022-12-19T07:11:17;17.48;;;8.88;;
76626;SDS011;65519;53.230;10.390;2022-12-19T07:13:42;14.40;;;7.43;;
76626;SDS011;65519;53.230;10.390;2022-12-19T07:16:08;19.27;;;10.13;;
76626;SDS011;65519;53.230;10.390;2022-12-19T07:18:35;15.45;;;8.25;;
76626;SDS011;65519;53.230;10.390;2022-12-19T07:21:02;18.98;;;9.15;;
76626;SDS011;65519;53.230;10.390;2022-12-19T07:23:28;15.88;;;8.85;;
76626;SDS011;65519;53.230;10.390;2022-12-19T07:25:54;15.85;;;9.13;;
76626;SDS011;65519;53.230;10.390;2022-12-19T07:28:20;24.15;;;10.05;;
76626;SDS011;65519;53.230;10.390;2022-12-19T07:30:45;19.85;;;9.02;;
76626;SDS011;65519;53.230;10.390;2022-12-19T07:33:10;15.45;;;9.15;;
76626;SDS011;65519;53.230;10.390;2022-12-19T07:35:36;18.23;;;9.45;;
76626;SDS011;65519;53.230;10.390;2022-12-19T07:38:02;16.00;;;8.77;;
76626;SDS011;65519;53.230;10.390;2022-12-19T07:40:28;18.65;;;8.73;;
76626;SDS011;65519;53.230;10.390;2022-12-19T07:42:54;17.17;;;8.68;;
76626;SDS011;65519;53.230;10.390;2022-12-19T07:45:23;20.40;;;10.77;;
76626;SDS011;65519;53.230;10.390;2022-12-19T07:47:48;20.77;;;10.88;;
76626;SDS011;65519;53.230;10.390;2022-12-19T07:50:14;18.80;;;9.93;;
76626;SDS011;65519;53.230;10.390;2022-12-19T07:52:39;17.45;;;8.50;;
76626;SDS011;65519;53.230;10.390;2022-12-19T07:55:04;14.67;;;7.83;;
76626;SDS011;65519;53.230;10.390;2022-12-19T07:57:30;17.15;;;9.07;;
76626;SDS011;65519;53.230;10.390;2022-12-19T07:59:55;18.77;;;9.47;;
76626;SDS011;65519;53.230;10.390;2022-12-19T08:02:21;20.13;;;9.97;;
76626;SDS011;65519;53.230;10.390;2022-12-19T08:04:46;12.85;;;5.47;;
76626;SDS011;65519;53.230;10.390;2022-12-19T08:07:11;25.10;;;13.37;;
76626;SDS011;65519;53.230;10.390;2022-12-19T08:09:37;16.63;;;9.10;;
76626;SDS011;65519;53.230;10.390;2022-12-19T08:12:02;19.40;;;9.00;;
76626;SDS011;65519;53.230;10.390;2022-12-19T08:14:28;23.33;;;12.23;;
76626;SDS011;65519;53.230;10.390;2022-12-19T08:16:53;23.45;;;10.55;;
76626;SDS011;65519;53.230;10.390;2022-12-19T08:19:19;20.67;;;11.13;;
76626;SDS011;65519;53.230;10.390;2022-12-19T08:21:44;25.17;;;12.53;;
76626;SDS011;65519;53.230;10.390;2022-12-19T08:24:09;21.45;;;10.70;;
76626;SDS011;65519;53.230;10.390;2022-12-19T08:26:35;16.80;;;9.73;;
76626;SDS011;65519;53.230;10.390;2022-12-19T08:29:00;21.33;;;11.27;;
76626;SDS011;65519;53.230;10.390;2022-12-19T08:31:26;23.10;;;11.88;;
76626;SDS011;65519;53.230;10.390;2022-12-19T08:33:52;17.73;;;9.05;;
76626;SDS011;65519;53.230;10.390;2022-12-19T08:36:19;20.45;;;10.93;;
76626;SDS011;65519;53.230;10.390;2022-12-19T08:38:45;20.67;;;9.98;;
76626;SDS011;65519;53.230;10.390;2022-12-19T08:41:12;24.33;;;10.27;;
76626;SDS011;65519;53.230;10.390;2022-12-19T08:43:38;23.55;;;11.85;;
76626;SDS011;65519;53.230;10.390;2022-12-19T08:46:04;26.07;;;12.17;;
76626;SDS011;65519;53.230;10.390;2022-12-19T08:48:31;20.55;;;10.23;;
76626;SDS011;65519;53.230;10.390;2022-12-19T08:50:58;16.50;;;8.50;;
76626;SDS011;65519;53.230;10.390;2022-12-19T08:53:25;20.58;;;10.70;;
76626;SDS011;65519;53.230;10.390;2022-12-19T08:55:55;32.33;;;14.43;;
76626;SDS011;65519;53.230;10.390;2022-12-19T08:58:22;24.42;;;11.73;;
76626;SDS011;65519;53.230;10.390;2022-12-19T09:00:48;20.17;;;11.45;;
76626;SDS011;65519;53.230;10.390;2022-12-19T09:03:14;31.23;;;15.48;;
76626;SDS011;65519;53.230;10.390;2022-12-19T09:05:40;45.78;;;21.92;;
76626;SDS011;65519;53.230;10.390;2022-12-19T09:08:05;31.42;;;13.85;;
76626;SDS011;65519;53.230;10.390;2022-12-19T09:10:30;26.27;;;13.43;;
76626;SDS011;65519;53.230;10.390;2022-12-19T09:12:56;41.28;;;23.10;;
76626;SDS011;65519;53.230;10.390;2022-12-19T09:15:22;42.55;;;19.48;;
76626;SDS011;65519;53.230;10.390;2022-12-19T09:17:48;27.75;;;12.90;;
76626;SDS011;65519;53.230;10.390;2022-12-19T09:20:13;30.30;;;14.40;;
76626;SDS011;65519;53.230;10.390;2022-12-19T09:22:39;25.88;;;12.07;;
76626;SDS011;65519;53.230;10.390;2022-12-19T09:25:05;34.65;;;17.33;;
76626;SDS011;65519;53.230;10.390;2022-12-19T09:27:30;29.48;;;13.65;;
76626;SDS011;65519;53.230;10.390;2022-12-19T09:29:56;28.10;;;12.53;;
76626;SDS011;65519;53.230;10.390;2022-12-19T09:32:21;28.43;;;13.83;;
76626;SDS011;65519;53.230;10.390;2022-12-19T09:34:46;25.47;;;11.23;;
76626;SDS011;65519;53.230;10.390;2022-12-19T09:37:12;27.10;;;13.02;;
76626;SDS011;65519;53.230;10.390;2022-12-19T09:39:37;25.23;;;12.40;;
76626;SDS011;65519;53.230;10.390;2022-12-19T09:44:58;22.63;;;10.40;;
76626;SDS011;65519;53.230;10.390;2022-12-19T09:47:36;22.80;;;11.15;;
76626;SDS011;65519;53.230;10.390;2022-12-19T09:50:13;29.38;;;13.20;;
76626;SDS011;65519;53.230;10.390;2022-12-19T09:53:11;32.97;;;13.80;;
76626;SDS011;65519;53.230;10.390;2022-12-19T09:55:43;31.38;;;14.02;;
76626;SDS011;65519;53.230;10.390;2022-12-19T10:00:49;32.78;;;14.07;;
76626;SDS011;65519;53.230;10.390;2022-12-19T10:03:23;29.50;;;14.68;;
76626;SDS011;65519;53.230;10.390;2022-12-19T10:08:27;80.28;;;38.70;;
76626;SDS011;65519;53.230;10.390;2022-12-19T10:16:15;40.83;;;15.63;;
76626;SDS011;65519;53.230;10.390;2022-12-19T10:18:53;34.90;;;13.95;;
76626;SDS011;65519;53.230;10.390;2022-12-19T10:21:28;15.70;;;9.77;;
76626;SDS011;65519;53.230;10.390;2022-12-19T10:26:53;28.25;;;12.77;;
76626;SDS011;65519;53.230;10.390;2022-12-19T10:29:37;35.10;;;15.10;;
76626;SDS011;65519;53.230;10.390;2022-12-19T10:32:33;32.45;;;14.73;;
76626;SDS011;65519;53.230;10.390;2022-12-19T10:35:00;31.05;;;14.23;;
76626;SDS011;65519;53.230;10.390;2022-12-19T10:37:31;28.70;;;13.20;;
76626;SDS011;65519;53.230;10.390;2022-12-19T10:42:58;31.25;;;13.85;;
76626;SDS011;65519;53.230;10.390;2022-12-19T10:45:36;33.55;;;13.88;;
76626;SDS011;65519;53.230;10.390;2022-12-19T10:48:08;33.50;;;15.18;;
76626;SDS011;65519;53.230;10.390;2022-12-19T10:50:39;37.15;;;15.60;;
76626;SDS011;65519;53.230;10.390;2022-12-19T10:53:08;20.40;;;9.93;;
76626;SDS011;65519;53.230;10.390;2022-12-19T10:58:26;32.72;;;14.10;;
76626;SDS011;65519;53.230;10.390;2022-12-19T11:03:40;30.98;;;13.88;;
76626;SDS011;65519;53.230;10.390;2022-12-19T11:06:35;32.95;;;15.75;;
76626;SDS011;65519;53.230;10.390;2022-12-19T11:11:59;42.20;;;17.45;;
76626;SDS011;65519;53.230;10.390;2022-12-19T11:14:25;31.38;;;12.75;;
76626;SDS011;65519;53.230;10.390;2022-12-19T11:16:52;38.88;;;15.25;;
76626;SDS011;65519;53.230;10.390;2022-12-19T11:19:28;34.95;;;15.35;;
76626;SDS011;65519;53.230;10.390;2022-12-19T11:22:02;34.00;;;14.73;;
76626;SDS011;65519;53.230;10.390;2022-12-19T11:24:38;41.67;;;18.35;;
76626;SDS011;65519;53.230;10.390;2022-12-19T11:27:28;36.75;;;15.57;;
76626;SDS011;65519;53.230;10.390;2022-12-19T11:32:39;31.67;;;13.98;;
76626;SDS011;65519;53.230;10.390;2022-12-19T11:35:14;65.20;;;30.15;;
76626;SDS011;65519;53.230;10.390;2022-12-19T11:37:49;39.15;;;18.15;;
76626;SDS011;65519;53.230;10.390;2022-12-19T11:40:30;41.58;;;18.77;;
76626;SDS011;65519;53.230;10.390;2022-12-19T11:45:49;51.42;;;21.10;;
76626;SDS011;65519;53.230;10.390;2022-12-19T11:50:55;45.30;;;18.63;;
76626;SDS011;65519;53.230;10.390;2022-12-19T11:56:02;55.37;;;20.07;;
76626;SDS011;65519;53.230;10.390;2022-12-19T11:58:33;61.25;;;27.50;;
76626;SDS011;65519;53.230;10.390;2022-12-19T12:01:07;30.15;;;15.18;;
76626;SDS011;65519;53.230;10.390;2022-12-19T12:06:12;39.63;;;18.33;;
76626;SDS011;65519;53.230;10.390;2022-12-19T12:19:43;26.70;;;12.15;;
76626;SDS011;65519;53.230;10.390;2022-12-19T12:28:08;34.17;;;13.73;;
76626;SDS011;65519;53.230;10.390;2022-12-19T12:33:59;32.35;;;15.13;;
76626;SDS011;65519;53.230;10.390;2022-12-19T12:36:37;25.80;;;12.88;;
76626;SDS011;65519;53.230;10.390;2022-12-19T12:39:39;25.15;;;13.50;;
76626;SDS011;65519;53.230;10.390;2022-12-19T12:42:32;37.85;;;16.20;;
76626;SDS011;65519;53.230;10.390;2022-12-19T12:45:12;25.75;;;12.23;;
76626;SDS011;65519;53.230;10.390;2022-12-19T12:47:44;33.85;;;15.48;;
76626;SDS011;65519;53.230;10.390;2022-12-19T12:50:13;24.20;;;10.60;;
76626;SDS011;65519;53.230;10.390;2022-12-19T12:52:45;36.50;;;17.42;;
76626;SDS011;65519;53.230;10.390;2022-12-19T12:55:36;44.95;;;21.77;;
76626;SDS011;65519;53.230;10.390;2022-12-19T12:58:04;27.13;;;13.55;;
76626;SDS011;65519;53.230;10.390;2022-12-19T13:00:31;63.30;;;31.50;;
76626;SDS011;65519;53.230;10.390;2022-12-19T13:03:11;22.00;;;11.18;;
76626;SDS011;65519;53.230;10.390;2022-12-19T13:14:01;22.77;;;10.85;;
76626;SDS011;65519;53.230;10.390;2022-12-19T13:19:18;21.48;;;12.23;;
76626;SDS011;65519;53.230;10.390;2022-12-19T13:24:40;32.60;;;16.05;;
76626;SDS011;65519;53.230;10.390;2022-12-19T13:27:39;34.55;;;15.27;;
76626;SDS011;65519;53.230;10.390;2022-12-19T13:37:31;35.00;;;16.95;;
76626;SDS011;65519;53.230;10.390;2022-12-19T13:45:47;38.13;;;17.52;;
76626;SDS011;65519;53.230;10.390;2022-12-19T13:48:21;37.78;;;18.08;;
76626;SDS011;65519;53.230;10.390;2022-12-19T13:50:52;34.05;;;16.75;;
76626;SDS011;65519;53.230;10.390;2022-12-19T13:53:21;28.98;;;15.30;;
76626;SDS011;65519;53.230;10.390;2022-12-19T13:55:48;31.90;;;16.92;;
76626;SDS011;65519;53.230;10.390;2022-12-19T13:58:31;34.95;;;17.38;;
76626;SDS011;65519;53.230;10.390;2022-12-19T14:01:02;34.13;;;16.95;;
76626;SDS011;65519;53.230;10.390;2022-12-19T14:03:39;35.10;;;16.25;;
76626;SDS011;65519;53.230;10.390;2022-12-19T14:06:08;70.10;;;32.65;;
76626;SDS011;65519;53.230;10.390;2022-12-19T14:08:35;66.95;;;32.83;;
76626;SDS011;65519;53.230;10.390;2022-12-19T14:11:01;57.25;;;30.17;;
76626;SDS011;65519;53.230;10.390;2022-12-19T14:13:32;22.63;;;11.82;;
76626;SDS011;65519;53.230;10.390;2022-12-19T14:16:22;38.97;;;20.60;;
76626;SDS011;65519;53.230;10.390;2022-12-19T14:18:47;31.27;;;15.98;;
76626;SDS011;65519;53.230;10.390;2022-12-19T14:21:15;32.03;;;15.25;;
76626;SDS011;65519;53.230;10.390;2022-12-19T14:26:43;34.13;;;15.57;;
76626;SDS011;65519;53.230;10.390;2022-12-19T14:29:17;33.25;;;18.38;;
76626;SDS011;65519;53.230;10.390;2022-12-19T14:31:48;41.38;;;20.60;;
76626;SDS011;65519;53.230;10.390;2022-12-19T14:34:17;42.45;;;20.85;;
76626;SDS011;65519;53.230;10.390;2022-12-19T14:36:49;74.55;;;40.28;;
76626;SDS011;65519;53.230;10.390;2022-12-19T14:39:17;36.00;;;18.45;;
76626;SDS011;65519;53.230;10.390;2022-12-19T14:41:44;50.70;;;26.88;;
76626;SDS011;65519;53.230;10.390;2022-12-19T14:44:51;36.38;;;18.58;;
76626;SDS011;65519;53.230;10.390;2022-12-19T14:49:47;41.00;;;18.40;;
76626;SDS011;65519;53.230;10.390;2022-12-19T14:55:25;39.05;;;17.58;;
76626;SDS011;65519;53.230;10.390;2022-12-19T14:57:54;42.30;;;18.75;;
76626;SDS011;65519;53.230;10.390;2022-12-19T15:02:47;41.38;;;19.48;;
76626;SDS011;65519;53.230;10.390;2022-12-19T15:05:13;42.95;;;19.42;;
76626;SDS011;65519;53.230;10.390;2022-12-19T15:10:52;47.50;;;21.58;;
76626;SDS011;65519;53.230;10.390;2022-12-19T15:20:43;31.60;;;16.60;;
76626;SDS011;65519;53.230;10.390;2022-12-19T15:23:09;43.50;;;19.97;;
76626;SDS011;65519;53.230;10.390;2022-12-19T15:25:34;41.80;;;18.30;;
76626;SDS011;65519;53.230;10.390;2022-12-19T15:28:00;37.95;;;19.42;;
76626;SDS011;65519;53.230;10.390;2022-12-19T15:30:25;43.15;;;19.85;;
76626;SDS011;65519;53.230;10.390;2022-12-19T15:32:53;40.05;;;18.13;;
76626;SDS011;65519;53.230;10.390;2022-12-19T15:35:18;52.57;;;24.20;;
76626;SDS011;65519;53.230;10.390;2022-12-19T15:37:44;47.80;;;21.08;;
76626;SDS011;65519;53.230;10.390;2022-12-19T15:40:14;34.53;;;17.23;;
76626;SDS011;65519;53.230;10.390;2022-12-19T15:42:46;46.10;;;22.60;;
76626;SDS011;65519;53.230;10.390;2022-12-19T15:45:16;45.15;;;20.33;;
76626;SDS011;65519;53.230;10.390;2022-12-19T15:47:44;44.50;;;22.05;;
76626;SDS011;65519;53.230;10.390;2022-12-19T15:50:13;43.65;;;19.98;;
76626;SDS011;65519;53.230;10.390;2022-12-19T15:52:40;47.53;;;21.60;;
76626;SDS011;65519;53.230;10.390;2022-12-19T15:55:05;55.93;;;27.57;;
76626;SDS011;65519;53.230;10.390;2022-12-19T15:57:34;46.25;;;20.58;;
76626;SDS011;65519;53.230;10.390;2022-12-19T16:00:06;48.00;;;22.85;;
76626;SDS011;65519;53.230;10.390;2022-12-19T16:02:40;48.85;;;19.20;;
76626;SDS011;65519;53.230;10.390;2022-12-19T16:05:07;50.15;;;23.58;;
76626;SDS011;65519;53.230;10.390;2022-12-19T16:07:34;48.45;;;20.73;;
76626;SDS011;65519;53.230;10.390;2022-12-19T16:09:59;40.83;;;19.17;;
76626;SDS011;65519;53.230;10.390;2022-12-19T16:12:26;36.73;;;19.10;;
76626;SDS011;65519;53.230;10.390;2022-12-19T16:14:58;43.47;;;21.73;;
76626;SDS011;65519;53.230;10.390;2022-12-19T16:17:26;38.08;;;16.95;;
76626;SDS011;65519;53.230;10.390;2022-12-19T16:19:54;30.40;;;15.65;;
76626;SDS011;65519;53.230;10.390;2022-12-19T16:22:21;34.45;;;17.75;;
76626;SDS011;65519;53.230;10.390;2022-12-19T16:24:49;36.78;;;17.58;;
76626;SDS011;65519;53.230;10.390;2022-12-19T16:27:20;33.88;;;16.77;;
76626;SDS011;65519;53.230;10.390;2022-12-19T16:29:50;36.92;;;17.63;;
76626;SDS011;65519;53.230;10.390;2022-12-19T16:32:17;69.75;;;36.85;;
76626;SDS011;65519;53.230;10.390;2022-12-19T16:34:43;24.55;;;14.05;;
76626;SDS011;65519;53.230;10.390;2022-12-19T16:37:09;32.75;;;16.95;;
76626;SDS011;65519;53.230;10.390;2022-12-19T16:39:34;43.13;;;19.90;;
76626;SDS011;65519;53.230;10.390;2022-12-19T16:42:01;37.15;;;18.02;;
76626;SDS011;65519;53.230;10.390;2022-12-19T16:44:29;42.83;;;20.27;;
76626;SDS011;65519;53.230;10.390;2022-12-19T16:46:55;42.55;;;21.63;;
76626;SDS011;65519;53.230;10.390;2022-12-19T16:49:21;44.42;;;22.70;;
76626;SDS011;65519;53.230;10.390;2022-12-19T16:51:47;43.25;;;21.67;;